sensor_id;sensor_type;location;lat;lon;timestamp;P1;durP1;ratioP1;P2;durP2;ratioP2
23159;SDS011;11748;50.844;4.396;2022-12-18T00:01:04;34.55;;;19.98;;
23159;SDS011;11748;50.844;4.396;2022-12-18T00:03:38;37.65;;;22.23;;
23159;SDS011;11748;50.844;4.396;2022-12-18T00:06:06;33.78;;;19.17;;
23159;SDS011;11748;50.844;4.396;2022-12-18T00:08:33;33.42;;;18.20;;
23159;SDS011;11748;50.844;4.396;2022-12-18T00:11:06;35.90;;;20.30;;
23159;SDS011;11748;50.844;4.396;2022-12-18T00:13:33;33.90;;;19.42;;
23159;SDS011;11748;50.844;4.396;2022-12-18T00:16:05;29.67;;;17.65;;
23159;SDS011;11748;50.844;4.396;2022-12-18T00:18:35;29.10;;;16.88;;
23159;SDS011;11748;50.844;4.396;2022-12-18T00:21:02;35.03;;;19.08;;
23159;SDS011;11748;50.844;4.396;2022-12-18T00:23:30;34.47;;;20.02;;
23159;SDS011;11748;50.844;4.396;2022-12-18T00:26:00;32.55;;;18.42;;
23159;SDS011;11748;50.844;4.396;2022-12-18T00:28:28;27.95;;;16.63;;
23159;SDS011;11748;50.844;4.396;2022-12-18T00:31:00;26.10;;;16.45;;
23159;SDS011;11748;50.844;4.396;2022-12-18T00:33:27;26.17;;;16.02;;
23159;SDS011;11748;50.844;4.396;2022-12-18T00:35:54;27.60;;;16.20;;
23159;SDS011;11748;50.844;4.396;2022-12-18T00:38:26;30.08;;;17.35;;
23159;SDS011;11748;50.844;4.396;2022-12-18T00:40:51;28.70;;;17.45;;
23159;SDS011;11748;50.844;4.396;2022-12-18T00:43:17;27.70;;;16.33;;
23159;SDS011;11748;50.844;4.396;2022-12-18T00:45:43;29.70;;;16.60;;
23159;SDS011;11748;50.844;4.396;2022-12-18T00:48:09;27.60;;;15.57;;
23159;SDS011;11748;50.844;4.396;2022-12-18T00:50:34;29.08;;;16.45;;
23159;SDS011;11748;50.844;4.396;2022-12-18T00:53:00;33.22;;;17.45;;
23159;SDS011;11748;50.844;4.396;2022-12-18T00:55:26;26.95;;;15.23;;
23159;SDS011;11748;50.844;4.396;2022-12-18T00:57:52;26.50;;;15.25;;
23159;SDS011;11748;50.844;4.396;2022-12-18T01:00:17;26.33;;;15.20;;
23159;SDS011;11748;50.844;4.396;2022-12-18T01:02:43;24.48;;;14.75;;
23159;SDS011;11748;50.844;4.396;2022-12-18T01:05:10;25.13;;;14.15;;
23159;SDS011;11748;50.844;4.396;2022-12-18T01:07:37;25.30;;;14.30;;
23159;SDS011;11748;50.844;4.396;2022-12-18T01:10:03;22.70;;;13.50;;
23159;SDS011;11748;50.844;4.396;2022-12-18T01:12:30;24.25;;;15.02;;
23159;SDS011;11748;50.844;4.396;2022-12-18T01:14:55;23.75;;;14.00;;
23159;SDS011;11748;50.844;4.396;2022-12-18T01:17:21;24.25;;;14.40;;
23159;SDS011;11748;50.844;4.396;2022-12-18T01:19:47;23.17;;;13.73;;
23159;SDS011;11748;50.844;4.396;2022-12-18T01:22:13;25.52;;;14.30;;
23159;SDS011;11748;50.844;4.396;2022-12-18T01:24:39;19.67;;;12.82;;
23159;SDS011;11748;50.844;4.396;2022-12-18T01:27:05;21.85;;;12.63;;
23159;SDS011;11748;50.844;4.396;2022-12-18T01:29:30;23.20;;;13.02;;
23159;SDS011;11748;50.844;4.396;2022-12-18T01:31:56;24.10;;;13.35;;
23159;SDS011;11748;50.844;4.396;2022-12-18T01:34:22;25.00;;;13.68;;
23159;SDS011;11748;50.844;4.396;2022-12-18T01:36:49;22.17;;;12.93;;
23159;SDS011;11748;50.844;4.396;2022-12-18T01:39:17;22.75;;;12.40;;
23159;SDS011;11748;50.844;4.396;2022-12-18T01:41:44;21.83;;;11.93;;
23159;SDS011;11748;50.844;4.396;2022-12-18T01:49:58;22.90;;;13.17;;
23159;SDS011;11748;50.844;4.396;2022-12-18T01:52:29;21.30;;;11.60;;
23159;SDS011;11748;50.844;4.396;2022-12-18T01:54:57;22.05;;;13.65;;
23159;SDS011;11748;50.844;4.396;2022-12-18T01:57:24;18.67;;;11.55;;
23159;SDS011;11748;50.844;4.396;2022-12-18T01:59:52;21.42;;;11.93;;
23159;SDS011;11748;50.844;4.396;2022-12-18T02:02:21;20.15;;;11.50;;
23159;SDS011;11748;50.844;4.396;2022-12-18T02:04:47;20.98;;;11.88;;
23159;SDS011;11748;50.844;4.396;2022-12-18T02:10:01;21.88;;;12.00;;
23159;SDS011;11748;50.844;4.396;2022-12-18T02:12:36;24.07;;;13.07;;
23159;SDS011;11748;50.844;4.396;2022-12-18T02:15:19;18.20;;;11.32;;
23159;SDS011;11748;50.844;4.396;2022-12-18T02:17:48;17.90;;;10.75;;
23159;SDS011;11748;50.844;4.396;2022-12-18T02:20:32;18.10;;;11.30;;
23159;SDS011;11748;50.844;4.396;2022-12-18T02:28:32;19.08;;;11.02;;
23159;SDS011;11748;50.844;4.396;2022-12-18T02:31:01;19.48;;;11.10;;
23159;SDS011;11748;50.844;4.396;2022-12-18T02:33:31;18.60;;;10.88;;
23159;SDS011;11748;50.844;4.396;2022-12-18T02:35:58;16.40;;;10.77;;
23159;SDS011;11748;50.844;4.396;2022-12-18T02:38:25;20.02;;;12.07;;
23159;SDS011;11748;50.844;4.396;2022-12-18T02:40:53;20.13;;;11.95;;
23159;SDS011;11748;50.844;4.396;2022-12-18T02:43:19;20.88;;;12.35;;
23159;SDS011;11748;50.844;4.396;2022-12-18T02:45:47;21.10;;;12.95;;
23159;SDS011;11748;50.844;4.396;2022-12-18T02:48:31;22.88;;;12.90;;
23159;SDS011;11748;50.844;4.396;2022-12-18T02:53:43;23.58;;;13.20;;
23159;SDS011;11748;50.844;4.396;2022-12-18T02:56:26;20.35;;;13.05;;
23159;SDS011;11748;50.844;4.396;2022-12-18T02:59:07;20.70;;;11.70;;
23159;SDS011;11748;50.844;4.396;2022-12-18T03:04:30;22.80;;;13.38;;
23159;SDS011;11748;50.844;4.396;2022-12-18T03:07:09;23.45;;;12.63;;
23159;SDS011;11748;50.844;4.396;2022-12-18T03:09:42;22.85;;;13.15;;
23159;SDS011;11748;50.844;4.396;2022-12-18T03:12:15;19.98;;;13.25;;
23159;SDS011;11748;50.844;4.396;2022-12-18T03:17:34;21.77;;;13.52;;
23159;SDS011;11748;50.844;4.396;2022-12-18T03:20:09;20.92;;;12.68;;
23159;SDS011;11748;50.844;4.396;2022-12-18T03:22:39;21.27;;;13.70;;
23159;SDS011;11748;50.844;4.396;2022-12-18T03:25:08;24.52;;;13.15;;
23159;SDS011;11748;50.844;4.396;2022-12-18T03:27:37;21.50;;;13.20;;
23159;SDS011;11748;50.844;4.396;2022-12-18T03:30:11;24.33;;;13.50;;
23159;SDS011;11748;50.844;4.396;2022-12-18T03:35:50;19.83;;;12.68;;
23159;SDS011;11748;50.844;4.396;2022-12-18T03:38:16;22.30;;;13.13;;
23159;SDS011;11748;50.844;4.396;2022-12-18T03:46:08;19.52;;;11.88;;
23159;SDS011;11748;50.844;4.396;2022-12-18T03:48:51;20.15;;;12.98;;
23159;SDS011;11748;50.844;4.396;2022-12-18T03:51:30;19.02;;;11.13;;
23159;SDS011;11748;50.844;4.396;2022-12-18T03:54:05;20.08;;;12.05;;
23159;SDS011;11748;50.844;4.396;2022-12-18T03:56:35;19.20;;;11.30;;
23159;SDS011;11748;50.844;4.396;2022-12-18T03:59:05;20.17;;;11.60;;
23159;SDS011;11748;50.844;4.396;2022-12-18T04:01:34;18.10;;;10.68;;
23159;SDS011;11748;50.844;4.396;2022-12-18T04:04:03;17.38;;;10.77;;
23159;SDS011;11748;50.844;4.396;2022-12-18T04:06:31;17.92;;;11.40;;
23159;SDS011;11748;50.844;4.396;2022-12-18T04:08:57;18.02;;;10.77;;
23159;SDS011;11748;50.844;4.396;2022-12-18T04:11:24;17.77;;;10.85;;
23159;SDS011;11748;50.844;4.396;2022-12-18T04:13:50;18.00;;;10.80;;
23159;SDS011;11748;50.844;4.396;2022-12-18T04:16:20;16.40;;;10.50;;
23159;SDS011;11748;50.844;4.396;2022-12-18T04:18:45;20.13;;;11.45;;
23159;SDS011;11748;50.844;4.396;2022-12-18T04:21:11;17.38;;;10.85;;
23159;SDS011;11748;50.844;4.396;2022-12-18T04:23:38;17.35;;;10.82;;
23159;SDS011;11748;50.844;4.396;2022-12-18T04:26:03;15.18;;;9.63;;
23159;SDS011;11748;50.844;4.396;2022-12-18T04:28:29;19.40;;;10.98;;
23159;SDS011;11748;50.844;4.396;2022-12-18T04:30:55;15.73;;;9.90;;
23159;SDS011;11748;50.844;4.396;2022-12-18T04:33:21;17.85;;;11.13;;
23159;SDS011;11748;50.844;4.396;2022-12-18T04:35:46;16.55;;;10.32;;
23159;SDS011;11748;50.844;4.396;2022-12-18T04:38:12;16.98;;;10.25;;
23159;SDS011;11748;50.844;4.396;2022-12-18T04:40:38;17.15;;;10.55;;
23159;SDS011;11748;50.844;4.396;2022-12-18T04:43:04;19.35;;;12.00;;
23159;SDS011;11748;50.844;4.396;2022-12-18T04:45:30;18.02;;;10.35;;
23159;SDS011;11748;50.844;4.396;2022-12-18T04:47:57;19.33;;;10.90;;
23159;SDS011;11748;50.844;4.396;2022-12-18T04:50:23;17.70;;;10.75;;
23159;SDS011;11748;50.844;4.396;2022-12-18T04:52:49;16.80;;;10.60;;
23159;SDS011;11748;50.844;4.396;2022-12-18T04:55:15;18.20;;;11.32;;
23159;SDS011;11748;50.844;4.396;2022-12-18T04:57:41;18.75;;;11.05;;
23159;SDS011;11748;50.844;4.396;2022-12-18T05:00:07;18.10;;;10.85;;
23159;SDS011;11748;50.844;4.396;2022-12-18T05:02:33;19.65;;;11.45;;
23159;SDS011;11748;50.844;4.396;2022-12-18T05:05:00;18.83;;;11.18;;
23159;SDS011;11748;50.844;4.396;2022-12-18T05:07:25;18.67;;;11.07;;
23159;SDS011;11748;50.844;4.396;2022-12-18T05:09:51;17.90;;;10.15;;
23159;SDS011;11748;50.844;4.396;2022-12-18T05:12:17;17.02;;;10.43;;
23159;SDS011;11748;50.844;4.396;2022-12-18T05:14:43;16.60;;;10.43;;
23159;SDS011;11748;50.844;4.396;2022-12-18T05:17:08;17.25;;;10.15;;
23159;SDS011;11748;50.844;4.396;2022-12-18T05:19:34;15.23;;;9.55;;
23159;SDS011;11748;50.844;4.396;2022-12-18T05:22:00;16.63;;;10.02;;
23159;SDS011;11748;50.844;4.396;2022-12-18T05:24:26;14.93;;;9.23;;
23159;SDS011;11748;50.844;4.396;2022-12-18T05:26:53;13.60;;;9.35;;
23159;SDS011;11748;50.844;4.396;2022-12-18T05:29:19;15.02;;;8.88;;
23159;SDS011;11748;50.844;4.396;2022-12-18T05:31:44;13.32;;;8.70;;
23159;SDS011;11748;50.844;4.396;2022-12-18T05:34:10;13.70;;;8.85;;
23159;SDS011;11748;50.844;4.396;2022-12-18T05:36:36;12.38;;;8.27;;
23159;SDS011;11748;50.844;4.396;2022-12-18T05:39:02;14.23;;;9.20;;
23159;SDS011;11748;50.844;4.396;2022-12-18T05:41:28;14.40;;;8.82;;
23159;SDS011;11748;50.844;4.396;2022-12-18T05:43:54;13.43;;;8.43;;
23159;SDS011;11748;50.844;4.396;2022-12-18T05:46:21;15.10;;;8.52;;
23159;SDS011;11748;50.844;4.396;2022-12-18T05:48:49;13.93;;;8.88;;
23159;SDS011;11748;50.844;4.396;2022-12-18T05:51:16;13.75;;;8.15;;
23159;SDS011;11748;50.844;4.396;2022-12-18T05:53:44;17.92;;;8.25;;
23159;SDS011;11748;50.844;4.396;2022-12-18T05:56:11;13.57;;;8.40;;
23159;SDS011;11748;50.844;4.396;2022-12-18T05:58:39;13.63;;;8.82;;
23159;SDS011;11748;50.844;4.396;2022-12-18T06:01:06;13.40;;;7.10;;
23159;SDS011;11748;50.844;4.396;2022-12-18T06:03:39;12.70;;;7.95;;
23159;SDS011;11748;50.844;4.396;2022-12-18T06:06:13;13.60;;;8.57;;
23159;SDS011;11748;50.844;4.396;2022-12-18T06:08:39;14.32;;;7.95;;
23159;SDS011;11748;50.844;4.396;2022-12-18T06:11:05;14.95;;;7.97;;
23159;SDS011;11748;50.844;4.396;2022-12-18T06:13:32;12.75;;;7.20;;
23159;SDS011;11748;50.844;4.396;2022-12-18T06:15:59;10.98;;;7.32;;
23159;SDS011;11748;50.844;4.396;2022-12-18T06:18:27;13.68;;;7.13;;
23159;SDS011;11748;50.844;4.396;2022-12-18T06:20:56;10.27;;;6.85;;
23159;SDS011;11748;50.844;4.396;2022-12-18T06:23:23;11.48;;;6.97;;
23159;SDS011;11748;50.844;4.396;2022-12-18T06:25:50;10.57;;;6.55;;
23159;SDS011;11748;50.844;4.396;2022-12-18T06:28:16;13.70;;;6.32;;
23159;SDS011;11748;50.844;4.396;2022-12-18T06:30:46;10.55;;;6.95;;
23159;SDS011;11748;50.844;4.396;2022-12-18T06:33:13;8.93;;;6.57;;
23159;SDS011;11748;50.844;4.396;2022-12-18T06:35:39;10.48;;;6.55;;
23159;SDS011;11748;50.844;4.396;2022-12-18T06:38:05;9.77;;;6.70;;
23159;SDS011;11748;50.844;4.396;2022-12-18T06:40:31;12.43;;;7.30;;
23159;SDS011;11748;50.844;4.396;2022-12-18T06:42:57;11.88;;;6.35;;
23159;SDS011;11748;50.844;4.396;2022-12-18T06:45:23;9.57;;;6.28;;
23159;SDS011;11748;50.844;4.396;2022-12-18T06:47:49;11.40;;;6.63;;
23159;SDS011;11748;50.844;4.396;2022-12-18T06:50:15;12.20;;;7.00;;
23159;SDS011;11748;50.844;4.396;2022-12-18T06:52:41;10.13;;;6.25;;
23159;SDS011;11748;50.844;4.396;2022-12-18T06:55:09;11.13;;;6.68;;
23159;SDS011;11748;50.844;4.396;2022-12-18T06:57:36;12.13;;;6.03;;
23159;SDS011;11748;50.844;4.396;2022-12-18T07:00:03;11.70;;;6.97;;
23159;SDS011;11748;50.844;4.396;2022-12-18T07:02:30;9.90;;;6.50;;
23159;SDS011;11748;50.844;4.396;2022-12-18T07:04:55;10.80;;;6.13;;
23159;SDS011;11748;50.844;4.396;2022-12-18T07:07:21;10.20;;;6.07;;
23159;SDS011;11748;50.844;4.396;2022-12-18T07:09:48;10.95;;;6.65;;
23159;SDS011;11748;50.844;4.396;2022-12-18T07:12:14;10.00;;;6.32;;
23159;SDS011;11748;50.844;4.396;2022-12-18T07:14:40;10.60;;;6.15;;
23159;SDS011;11748;50.844;4.396;2022-12-18T07:17:06;10.23;;;6.60;;
23159;SDS011;11748;50.844;4.396;2022-12-18T07:19:38;9.27;;;5.97;;
23159;SDS011;11748;50.844;4.396;2022-12-18T07:22:03;12.10;;;7.03;;
23159;SDS011;11748;50.844;4.396;2022-12-18T07:24:32;11.60;;;6.30;;
23159;SDS011;11748;50.844;4.396;2022-12-18T07:26:59;13.32;;;6.53;;
23159;SDS011;11748;50.844;4.396;2022-12-18T07:29:25;8.23;;;5.90;;
23159;SDS011;11748;50.844;4.396;2022-12-18T07:31:51;9.18;;;5.93;;
23159;SDS011;11748;50.844;4.396;2022-12-18T07:34:17;9.48;;;5.95;;
23159;SDS011;11748;50.844;4.396;2022-12-18T07:36:42;10.38;;;6.05;;
23159;SDS011;11748;50.844;4.396;2022-12-18T07:39:10;9.75;;;6.20;;
23159;SDS011;11748;50.844;4.396;2022-12-18T07:41:36;11.05;;;5.78;;
23159;SDS011;11748;50.844;4.396;2022-12-18T07:44:02;9.77;;;5.72;;
23159;SDS011;11748;50.844;4.396;2022-12-18T07:46:28;10.85;;;6.78;;
23159;SDS011;11748;50.844;4.396;2022-12-18T07:48:53;9.80;;;6.60;;
23159;SDS011;11748;50.844;4.396;2022-12-18T07:51:19;9.43;;;6.07;;
23159;SDS011;11748;50.844;4.396;2022-12-18T07:53:45;10.40;;;6.25;;
23159;SDS011;11748;50.844;4.396;2022-12-18T07:56:11;8.40;;;5.18;;
23159;SDS011;11748;50.844;4.396;2022-12-18T07:58:38;10.52;;;6.60;;
23159;SDS011;11748;50.844;4.396;2022-12-18T08:01:11;10.93;;;6.45;;
23159;SDS011;11748;50.844;4.396;2022-12-18T08:03:38;9.55;;;6.35;;
23159;SDS011;11748;50.844;4.396;2022-12-18T08:06:06;12.23;;;6.10;;
23159;SDS011;11748;50.844;4.396;2022-12-18T08:08:34;11.80;;;6.53;;
23159;SDS011;11748;50.844;4.396;2022-12-18T08:11:01;9.50;;;6.22;;
23159;SDS011;11748;50.844;4.396;2022-12-18T08:13:27;9.85;;;6.20;;
23159;SDS011;11748;50.844;4.396;2022-12-18T08:15:57;10.32;;;6.57;;
23159;SDS011;11748;50.844;4.396;2022-12-18T08:18:27;9.73;;;6.57;;
23159;SDS011;11748;50.844;4.396;2022-12-18T08:20:53;11.02;;;6.35;;
23159;SDS011;11748;50.844;4.396;2022-12-18T08:23:19;10.10;;;5.72;;
23159;SDS011;11748;50.844;4.396;2022-12-18T08:25:45;10.43;;;7.10;;
23159;SDS011;11748;50.844;4.396;2022-12-18T08:28:11;11.52;;;6.40;;
23159;SDS011;11748;50.844;4.396;2022-12-18T08:30:37;11.50;;;6.40;;
23159;SDS011;11748;50.844;4.396;2022-12-18T08:33:05;12.80;;;7.35;;
23159;SDS011;11748;50.844;4.396;2022-12-18T08:35:34;12.07;;;7.50;;
23159;SDS011;11748;50.844;4.396;2022-12-18T08:38:01;13.27;;;6.90;;
23159;SDS011;11748;50.844;4.396;2022-12-18T08:40:27;9.45;;;6.20;;
23159;SDS011;11748;50.844;4.396;2022-12-18T08:42:52;11.15;;;6.70;;
23159;SDS011;11748;50.844;4.396;2022-12-18T08:45:36;12.80;;;6.95;;
23159;SDS011;11748;50.844;4.396;2022-12-18T08:48:02;10.50;;;6.70;;
23159;SDS011;11748;50.844;4.396;2022-12-18T08:50:28;11.27;;;6.55;;
23159;SDS011;11748;50.844;4.396;2022-12-18T08:52:54;9.45;;;6.32;;
23159;SDS011;11748;50.844;4.396;2022-12-18T08:55:19;10.25;;;6.68;;
23159;SDS011;11748;50.844;4.396;2022-12-18T08:57:47;11.25;;;7.15;;
23159;SDS011;11748;50.844;4.396;2022-12-18T09:00:14;12.43;;;7.57;;
23159;SDS011;11748;50.844;4.396;2022-12-18T09:02:40;10.48;;;7.22;;
23159;SDS011;11748;50.844;4.396;2022-12-18T09:05:06;10.30;;;6.93;;
23159;SDS011;11748;50.844;4.396;2022-12-18T09:07:32;11.63;;;7.43;;
23159;SDS011;11748;50.844;4.396;2022-12-18T09:09:57;13.05;;;8.02;;
23159;SDS011;11748;50.844;4.396;2022-12-18T09:12:23;11.98;;;7.50;;
23159;SDS011;11748;50.844;4.396;2022-12-18T09:14:49;12.93;;;7.93;;
23159;SDS011;11748;50.844;4.396;2022-12-18T09:17:14;11.65;;;7.93;;
23159;SDS011;11748;50.844;4.396;2022-12-18T09:19:40;13.70;;;7.53;;
23159;SDS011;11748;50.844;4.396;2022-12-18T09:22:06;11.85;;;7.13;;
23159;SDS011;11748;50.844;4.396;2022-12-18T09:24:32;12.93;;;7.18;;
23159;SDS011;11748;50.844;4.396;2022-12-18T09:26:58;10.93;;;7.30;;
23159;SDS011;11748;50.844;4.396;2022-12-18T09:29:23;14.13;;;8.07;;
23159;SDS011;11748;50.844;4.396;2022-12-18T09:31:49;14.32;;;8.82;;
23159;SDS011;11748;50.844;4.396;2022-12-18T09:34:15;13.90;;;8.00;;
23159;SDS011;11748;50.844;4.396;2022-12-18T09:36:41;13.43;;;8.30;;
23159;SDS011;11748;50.844;4.396;2022-12-18T09:39:07;14.90;;;8.18;;
23159;SDS011;11748;50.844;4.396;2022-12-18T09:41:38;13.27;;;8.50;;
23159;SDS011;11748;50.844;4.396;2022-12-18T09:44:10;12.25;;;7.57;;
23159;SDS011;11748;50.844;4.396;2022-12-18T09:46:38;13.40;;;8.48;;
23159;SDS011;11748;50.844;4.396;2022-12-18T09:49:13;13.95;;;8.82;;
23159;SDS011;11748;50.844;4.396;2022-12-18T09:51:45;16.85;;;9.55;;
23159;SDS011;11748;50.844;4.396;2022-12-18T09:54:26;16.85;;;9.20;;
23159;SDS011;11748;50.844;4.396;2022-12-18T09:57:01;11.93;;;8.40;;
23159;SDS011;11748;50.844;4.396;2022-12-18T09:59:33;16.48;;;9.80;;
23159;SDS011;11748;50.844;4.396;2022-12-18T10:02:11;16.10;;;8.98;;
23159;SDS011;11748;50.844;4.396;2022-12-18T10:04:43;15.00;;;9.45;;
23159;SDS011;11748;50.844;4.396;2022-12-18T10:13:54;14.88;;;9.80;;
23159;SDS011;11748;50.844;4.396;2022-12-18T10:18:39;14.77;;;9.43;;
23159;SDS011;11748;50.844;4.396;2022-12-18T10:21:19;17.23;;;9.55;;
23159;SDS011;11748;50.844;4.396;2022-12-18T10:26:18;18.30;;;9.40;;
23159;SDS011;11748;50.844;4.396;2022-12-18T10:28:45;16.65;;;10.05;;
23159;SDS011;11748;50.844;4.396;2022-12-18T10:31:15;14.88;;;9.75;;
23159;SDS011;11748;50.844;4.396;2022-12-18T10:33:46;16.23;;;10.00;;
23159;SDS011;11748;50.844;4.396;2022-12-18T10:36:12;18.17;;;10.60;;
23159;SDS011;11748;50.844;4.396;2022-12-18T10:38:37;14.63;;;9.75;;
23159;SDS011;11748;50.844;4.396;2022-12-18T10:41:23;14.63;;;9.82;;
23159;SDS011;11748;50.844;4.396;2022-12-18T10:44:12;17.60;;;10.55;;
23159;SDS011;11748;50.844;4.396;2022-12-18T10:46:42;18.48;;;10.90;;
23159;SDS011;11748;50.844;4.396;2022-12-18T10:49:18;16.35;;;10.50;;
23159;SDS011;11748;50.844;4.396;2022-12-18T10:54:47;17.15;;;10.05;;
23159;SDS011;11748;50.844;4.396;2022-12-18T10:57:29;15.98;;;10.50;;
23159;SDS011;11748;50.844;4.396;2022-12-18T10:59:58;16.05;;;10.98;;
23159;SDS011;11748;50.844;4.396;2022-12-18T11:04:53;16.75;;;10.63;;
23159;SDS011;11748;50.844;4.396;2022-12-18T11:07:19;16.30;;;10.75;;
23159;SDS011;11748;50.844;4.396;2022-12-18T11:09:45;18.77;;;11.35;;
23159;SDS011;11748;50.844;4.396;2022-12-18T11:12:25;16.70;;;11.38;;
23159;SDS011;11748;50.844;4.396;2022-12-18T11:14:54;19.20;;;11.43;;
23159;SDS011;11748;50.844;4.396;2022-12-18T11:17:23;16.20;;;10.88;;
23159;SDS011;11748;50.844;4.396;2022-12-18T11:20:00;16.40;;;10.13;;
23159;SDS011;11748;50.844;4.396;2022-12-18T11:24:59;18.10;;;11.57;;
23159;SDS011;11748;50.844;4.396;2022-12-18T11:27:27;17.80;;;11.75;;
23159;SDS011;11748;50.844;4.396;2022-12-18T11:30:06;17.05;;;10.95;;
23159;SDS011;11748;50.844;4.396;2022-12-18T11:32:52;17.05;;;11.13;;
23159;SDS011;11748;50.844;4.396;2022-12-18T11:35:35;14.85;;;10.32;;
23159;SDS011;11748;50.844;4.396;2022-12-18T11:40:43;17.02;;;11.18;;
23159;SDS011;11748;50.844;4.396;2022-12-18T11:45:47;16.45;;;10.35;;
23159;SDS011;11748;50.844;4.396;2022-12-18T11:48:21;19.25;;;11.25;;
23159;SDS011;11748;50.844;4.396;2022-12-18T11:50:54;17.55;;;11.20;;
23159;SDS011;11748;50.844;4.396;2022-12-18T11:53:25;16.02;;;10.60;;
23159;SDS011;11748;50.844;4.396;2022-12-18T12:01:58;16.83;;;10.48;;
23159;SDS011;11748;50.844;4.396;2022-12-18T12:04:57;16.77;;;10.15;;
23159;SDS011;11748;50.844;4.396;2022-12-18T12:12:40;17.33;;;10.32;;
23159;SDS011;11748;50.844;4.396;2022-12-18T12:18:19;18.70;;;10.45;;
23159;SDS011;11748;50.844;4.396;2022-12-18T12:24:19;22.00;;;11.38;;
23159;SDS011;11748;50.844;4.396;2022-12-18T12:38:04;18.75;;;11.10;;
23159;SDS011;11748;50.844;4.396;2022-12-18T12:40:41;19.45;;;11.15;;
23159;SDS011;11748;50.844;4.396;2022-12-18T12:46:10;17.92;;;11.15;;
23159;SDS011;11748;50.844;4.396;2022-12-18T12:48:45;19.63;;;11.57;;
23159;SDS011;11748;50.844;4.396;2022-12-18T12:51:19;18.85;;;11.40;;
23159;SDS011;11748;50.844;4.396;2022-12-18T12:53:52;20.58;;;12.50;;
23159;SDS011;11748;50.844;4.396;2022-12-18T12:56:19;19.65;;;11.35;;
23159;SDS011;11748;50.844;4.396;2022-12-18T12:58:49;19.70;;;11.50;;
23159;SDS011;11748;50.844;4.396;2022-12-18T13:04:12;23.42;;;12.57;;
23159;SDS011;11748;50.844;4.396;2022-12-18T13:06:47;19.92;;;12.25;;
23159;SDS011;11748;50.844;4.396;2022-12-18T13:09:16;20.95;;;12.70;;
23159;SDS011;11748;50.844;4.396;2022-12-18T13:11:42;22.08;;;12.55;;
23159;SDS011;11748;50.844;4.396;2022-12-18T13:14:36;19.60;;;11.98;;
23159;SDS011;11748;50.844;4.396;2022-12-18T13:19:47;21.13;;;12.60;;
23159;SDS011;11748;50.844;4.396;2022-12-18T13:22:31;22.60;;;12.73;;
23159;SDS011;11748;50.844;4.396;2022-12-18T13:25:01;21.45;;;13.43;;
23159;SDS011;11748;50.844;4.396;2022-12-18T13:41:02;25.45;;;13.95;;
23159;SDS011;11748;50.844;4.396;2022-12-18T13:43:47;26.98;;;13.95;;
23159;SDS011;11748;50.844;4.396;2022-12-18T13:48:48;26.05;;;14.55;;
23159;SDS011;11748;50.844;4.396;2022-12-18T13:51:21;25.02;;;14.25;;
23159;SDS011;11748;50.844;4.396;2022-12-18T13:53:50;23.83;;;13.57;;
23159;SDS011;11748;50.844;4.396;2022-12-18T13:56:21;23.63;;;13.60;;
23159;SDS011;11748;50.844;4.396;2022-12-18T13:59:05;24.90;;;14.35;;
23159;SDS011;11748;50.844;4.396;2022-12-18T14:01:41;28.92;;;14.93;;
23159;SDS011;11748;50.844;4.396;2022-12-18T14:04:34;23.58;;;14.98;;
23159;SDS011;11748;50.844;4.396;2022-12-18T14:07:33;24.95;;;14.55;;
23159;SDS011;11748;50.844;4.396;2022-12-18T14:12:26;24.30;;;14.45;;
23159;SDS011;11748;50.844;4.396;2022-12-18T14:18:13;28.38;;;14.90;;
23159;SDS011;11748;50.844;4.396;2022-12-18T14:20:47;29.55;;;15.13;;
23159;SDS011;11748;50.844;4.396;2022-12-18T14:26:20;27.52;;;15.43;;
23159;SDS011;11748;50.844;4.396;2022-12-18T14:28:46;28.80;;;15.65;;
23159;SDS011;11748;50.844;4.396;2022-12-18T14:31:20;26.10;;;15.27;;
23159;SDS011;11748;50.844;4.396;2022-12-18T14:33:48;28.05;;;16.48;;
23159;SDS011;11748;50.844;4.396;2022-12-18T14:36:16;26.30;;;15.85;;
23159;SDS011;11748;50.844;4.396;2022-12-18T14:38:56;30.25;;;16.77;;
23159;SDS011;11748;50.844;4.396;2022-12-18T14:41:27;27.92;;;16.35;;
23159;SDS011;11748;50.844;4.396;2022-12-18T14:44:05;29.10;;;15.68;;
23159;SDS011;11748;50.844;4.396;2022-12-18T14:49:23;28.20;;;15.93;;
23159;SDS011;11748;50.844;4.396;2022-12-18T14:51:52;27.95;;;16.23;;
23159;SDS011;11748;50.844;4.396;2022-12-18T14:54:27;29.27;;;16.25;;
23159;SDS011;11748;50.844;4.396;2022-12-18T14:59:23;30.30;;;16.88;;
23159;SDS011;11748;50.844;4.396;2022-12-18T15:05:17;31.33;;;17.20;;
23159;SDS011;11748;50.844;4.396;2022-12-18T15:07:50;27.55;;;16.13;;
23159;SDS011;11748;50.844;4.396;2022-12-18T15:10:22;30.05;;;16.65;;
23159;SDS011;11748;50.844;4.396;2022-12-18T15:20:40;33.25;;;18.15;;
23159;SDS011;11748;50.844;4.396;2022-12-18T15:23:21;27.50;;;16.13;;
23159;SDS011;11748;50.844;4.396;2022-12-18T15:25:56;30.55;;;16.80;;
23159;SDS011;11748;50.844;4.396;2022-12-18T15:31:05;33.42;;;17.70;;
23159;SDS011;11748;50.844;4.396;2022-12-18T15:33:37;30.88;;;17.23;;
23159;SDS011;11748;50.844;4.396;2022-12-18T15:36:19;29.73;;;15.93;;
23159;SDS011;11748;50.844;4.396;2022-12-18T15:38:47;29.83;;;16.38;;
23159;SDS011;11748;50.844;4.396;2022-12-18T15:41:17;30.27;;;16.00;;
23159;SDS011;11748;50.844;4.396;2022-12-18T15:43:45;26.13;;;15.60;;
23159;SDS011;11748;50.844;4.396;2022-12-18T15:46:16;30.08;;;15.77;;
23159;SDS011;11748;50.844;4.396;2022-12-18T15:48:47;30.73;;;16.33;;
23159;SDS011;11748;50.844;4.396;2022-12-18T15:51:18;29.17;;;15.82;;
23159;SDS011;11748;50.844;4.396;2022-12-18T15:53:47;29.02;;;15.50;;
23159;SDS011;11748;50.844;4.396;2022-12-18T15:56:15;27.60;;;15.68;;
23159;SDS011;11748;50.844;4.396;2022-12-18T15:58:59;35.00;;;17.33;;
23159;SDS011;11748;50.844;4.396;2022-12-18T16:01:26;29.25;;;16.17;;
23159;SDS011;11748;50.844;4.396;2022-12-18T16:03:53;31.63;;;16.17;;
23159;SDS011;11748;50.844;4.396;2022-12-18T16:06:20;25.77;;;14.88;;
23159;SDS011;11748;50.844;4.396;2022-12-18T16:08:47;29.52;;;16.27;;
23159;SDS011;11748;50.844;4.396;2022-12-18T16:11:23;28.27;;;15.70;;
23159;SDS011;11748;50.844;4.396;2022-12-18T16:14:16;28.35;;;15.68;;
23159;SDS011;11748;50.844;4.396;2022-12-18T16:16:52;28.08;;;15.68;;
23159;SDS011;11748;50.844;4.396;2022-12-18T16:19:22;28.80;;;15.77;;
23159;SDS011;11748;50.844;4.396;2022-12-18T16:21:48;27.58;;;15.90;;
23159;SDS011;11748;50.844;4.396;2022-12-18T16:24:16;26.10;;;14.90;;
23159;SDS011;11748;50.844;4.396;2022-12-18T16:26:43;26.02;;;14.65;;
23159;SDS011;11748;50.844;4.396;2022-12-18T16:29:09;28.83;;;14.82;;
23159;SDS011;11748;50.844;4.396;2022-12-18T16:31:41;26.77;;;14.82;;
23159;SDS011;11748;50.844;4.396;2022-12-18T16:34:20;25.23;;;15.02;;
23159;SDS011;11748;50.844;4.396;2022-12-18T16:36:53;26.85;;;15.05;;
23159;SDS011;11748;50.844;4.396;2022-12-18T16:39:20;26.38;;;15.20;;
23159;SDS011;11748;50.844;4.396;2022-12-18T16:41:46;27.38;;;14.63;;
23159;SDS011;11748;50.844;4.396;2022-12-18T16:44:12;26.67;;;14.57;;
23159;SDS011;11748;50.844;4.396;2022-12-18T16:46:39;26.95;;;15.50;;
23159;SDS011;11748;50.844;4.396;2022-12-18T16:49:08;27.83;;;15.13;;
23159;SDS011;11748;50.844;4.396;2022-12-18T16:51:35;26.27;;;14.80;;
23159;SDS011;11748;50.844;4.396;2022-12-18T16:54:04;26.88;;;14.82;;
23159;SDS011;11748;50.844;4.396;2022-12-18T16:56:31;27.58;;;15.15;;